createdAt,value
2024-03-14T00:00:19.005Z,4.71
2024-03-14T00:03:09.234Z,4.71
2024-03-14T00:05:37.103Z,4.72
2024-03-14T00:08:05.815Z,4.73
2024-03-14T00:10:34.441Z,4.72
2024-03-14T00:13:02.742Z,4.73
2024-03-14T00:15:31.514Z,4.74
2024-03-14T00:17:59.507Z,4.76
2024-03-14T00:20:27.734Z,4.76
2024-03-14T00:22:55.865Z,4.75
2024-03-14T00:25:23.735Z,4.72
2024-03-14T00:27:51.520Z,4.74
2024-03-14T00:30:20.055Z,4.74
2024-03-14T00:32:47.836Z,4.73
2024-03-14T00:35:16.485Z,4.69
2024-03-14T00:37:45.282Z,4.67
2024-03-14T00:40:13.257Z,4.67
2024-03-14T00:42:46.286Z,4.68
2024-03-14T00:45:16.008Z,4.65
2024-03-14T00:47:44.205Z,4.63
2024-03-14T00:50:12.225Z,4.63
2024-03-14T00:52:41.349Z,4.63
2024-03-14T00:55:11.190Z,4.62
2024-03-14T00:57:43.424Z,4.62
2024-03-14T01:00:14.351Z,4.62
2024-03-14T01:02:44.977Z,4.62
2024-03-14T01:05:13.426Z,4.60
2024-03-14T01:07:41.652Z,4.57
2024-03-14T01:10:10.855Z,4.58
2024-03-14T01:12:39.978Z,4.59
2024-03-14T01:15:09.159Z,4.59
2024-03-14T01:17:37.117Z,4.59
2024-03-14T01:20:11.410Z,4.57
2024-03-14T01:22:39.720Z,4.57
2024-03-14T01:25:07.579Z,4.58
2024-03-14T01:27:35.538Z,4.59
2024-03-14T01:30:04.383Z,4.60
2024-03-14T01:32:34.572Z,4.60
2024-03-14T01:35:02.536Z,4.61
2024-03-14T01:37:30.688Z,4.61
2024-03-14T01:39:58.698Z,4.60
2024-03-14T01:42:26.491Z,4.59
2024-03-14T01:44:58.415Z,4.59
2024-03-14T01:47:26.458Z,4.60
2024-03-14T01:49:54.296Z,4.60
2024-03-14T01:52:22.311Z,4.59
2024-03-14T01:54:50.330Z,4.60
2024-03-14T01:57:21.163Z,4.60
2024-03-14T01:59:51.170Z,4.60
2024-03-14T02:02:19.961Z,4.59
2024-03-14T02:04:53.444Z,4.60
2024-03-14T02:07:27.304Z,4.60
2024-03-14T02:09:55.050Z,4.57
2024-03-14T02:12:23.006Z,4.52
2024-03-14T02:14:50.986Z,4.52
2024-03-14T02:17:18.797Z,4.52
2024-03-14T02:19:46.888Z,4.51
2024-03-14T02:22:23.512Z,4.50
2024-03-14T02:24:53.854Z,4.47
2024-03-14T02:27:21.680Z,4.46
2024-03-14T02:29:49.966Z,4.47
2024-03-14T02:32:19.370Z,4.48
2024-03-14T02:34:47.160Z,4.49
2024-03-14T02:37:14.997Z,4.49
2024-03-14T02:39:43.005Z,4.49
2024-03-14T02:42:12.698Z,4.52
2024-03-14T02:44:40.780Z,4.53
2024-03-14T02:47:08.687Z,4.54
2024-03-14T02:49:36.886Z,4.57
2024-03-14T02:52:04.854Z,4.59
2024-03-14T02:54:32.730Z,4.60
2024-03-14T02:57:00.740Z,4.60
2024-03-14T02:59:28.954Z,4.63
2024-03-14T03:01:56.775Z,4.64
2024-03-14T03:04:25.685Z,4.65
2024-03-14T03:06:56.595Z,4.67
2024-03-14T03:09:24.948Z,4.68
2024-03-14T03:11:54.289Z,4.69
2024-03-14T03:14:22.898Z,4.69
2024-03-14T03:16:50.994Z,4.71
2024-03-14T03:19:19.375Z,4.68
2024-03-14T03:21:47.149Z,4.65
2024-03-14T03:24:15.279Z,4.61
2024-03-14T03:26:43.148Z,4.58
2024-03-14T03:29:13.958Z,4.56
2024-03-14T03:31:41.993Z,4.53
2024-03-14T03:34:09.728Z,4.53
2024-03-14T03:36:38.284Z,4.53
2024-03-14T03:39:13.037Z,4.52
2024-03-14T03:41:41.870Z,4.53
2024-03-14T03:44:10.460Z,4.52
2024-03-14T03:46:43.694Z,4.50
2024-03-14T03:49:11.627Z,4.47
2024-03-14T03:51:39.382Z,4.48
2024-03-14T03:54:07.218Z,4.47
2024-03-14T03:56:35.069Z,4.47
2024-03-14T03:59:02.785Z,4.47
2024-03-14T04:01:30.570Z,4.48
2024-03-14T04:03:58.330Z,4.49
2024-03-14T04:06:26.072Z,4.49
2024-03-14T04:08:54.457Z,4.47
2024-03-14T04:11:22.517Z,4.45
2024-03-14T04:13:50.272Z,4.43
2024-03-14T04:16:18.067Z,4.42
2024-03-14T04:18:46.662Z,4.40
2024-03-14T04:21:15.930Z,4.40
2024-03-14T04:23:43.829Z,4.40
2024-03-14T04:26:17.189Z,4.39
2024-03-14T04:28:46.584Z,4.38
2024-03-14T04:31:14.322Z,4.36
2024-03-14T04:33:43.294Z,4.34
2024-03-14T04:36:11.302Z,4.32
2024-03-14T04:38:39.973Z,4.32
2024-03-14T04:41:16.614Z,4.32
2024-03-14T04:43:48.066Z,4.27
2024-03-14T04:46:15.934Z,4.26
2024-03-14T04:48:43.778Z,4.24
2024-03-14T04:51:13.916Z,4.24
2024-03-14T04:53:42.513Z,4.25
2024-03-14T04:56:10.338Z,4.25
2024-03-14T04:58:38.995Z,4.22
2024-03-14T05:01:07.775Z,4.20
2024-03-14T05:03:35.944Z,4.21
2024-03-14T05:06:04.817Z,4.23
2024-03-14T05:08:32.770Z,4.24
2024-03-14T05:11:00.804Z,4.24
2024-03-14T05:13:29.584Z,4.25
2024-03-14T05:15:58.807Z,4.25
2024-03-14T05:18:27.470Z,4.24
2024-03-14T05:20:56.241Z,4.24
2024-03-14T05:23:24.314Z,4.23
2024-03-14T05:25:55.825Z,4.22
2024-03-14T05:28:23.798Z,4.23
2024-03-14T05:30:53.653Z,4.25
2024-03-14T05:33:21.738Z,4.27
2024-03-14T05:35:51.613Z,4.28
2024-03-14T05:38:19.553Z,4.31
2024-03-14T05:40:47.272Z,4.32
2024-03-14T05:43:15.662Z,4.31
2024-03-14T05:45:43.930Z,4.31
2024-03-14T05:48:14.439Z,4.34
2024-03-14T05:50:45.708Z,4.35
2024-03-14T05:53:13.552Z,4.37
2024-03-14T05:55:41.354Z,4.40
2024-03-14T05:58:09.533Z,4.43
2024-03-14T06:00:37.684Z,4.45
2024-03-14T06:03:05.527Z,4.47
2024-03-14T06:05:33.435Z,4.46
2024-03-14T06:08:01.320Z,4.48
2024-03-14T06:10:31.412Z,4.50
2024-03-14T06:12:59.453Z,4.50
2024-03-14T06:15:27.444Z,4.53
2024-03-14T06:17:55.453Z,4.56
2024-03-14T06:20:26.268Z,4.60
2024-03-14T06:22:54.325Z,4.63
2024-03-14T06:25:23.563Z,4.66
2024-03-14T06:27:51.320Z,4.72
2024-03-14T06:30:20.401Z,4.78
2024-03-14T06:32:49.192Z,4.83
2024-03-14T06:35:17.577Z,4.89
2024-03-14T06:37:45.812Z,4.94
2024-03-14T06:40:17.440Z,5.00
2024-03-14T06:42:46.906Z,5.05
2024-03-14T06:45:15.156Z,5.08
2024-03-14T06:47:46.737Z,5.10
2024-03-14T06:50:16.276Z,5.11
2024-03-14T06:52:44.336Z,5.14
2024-03-14T06:55:13.739Z,5.14
2024-03-14T06:57:41.941Z,5.15
2024-03-14T07:00:19.447Z,5.19
2024-03-14T07:02:47.529Z,5.25
2024-03-14T07:05:20.828Z,5.31
2024-03-14T07:07:50.318Z,5.34
2024-03-14T07:10:18.199Z,5.39
2024-03-14T07:12:47.875Z,5.43
2024-03-14T07:15:19.277Z,5.40
2024-03-14T07:17:47.950Z,5.42
2024-03-14T07:20:20.011Z,5.45
2024-03-14T07:22:48.120Z,5.47
2024-03-14T07:25:20.178Z,5.46
2024-03-14T07:27:49.730Z,5.49
2024-03-14T07:30:18.290Z,5.54
2024-03-14T07:32:46.761Z,5.58
2024-03-14T07:35:16.526Z,5.62
2024-03-14T07:37:47.120Z,5.68
2024-03-14T07:40:19.156Z,5.76
2024-03-14T07:42:47.921Z,5.83
2024-03-14T07:45:19.793Z,5.90
2024-03-14T07:47:53.846Z,5.95
2024-03-14T07:50:24.421Z,6.02
2024-03-14T07:52:52.521Z,6.12
2024-03-14T07:55:20.307Z,6.17
2024-03-14T07:57:48.394Z,6.20
2024-03-14T08:00:17.051Z,6.24
2024-03-14T08:02:55.778Z,6.29
2024-03-14T08:05:26.145Z,6.38
2024-03-14T08:08:04.832Z,6.46
2024-03-14T08:10:46.717Z,6.52
2024-03-14T08:13:25.373Z,6.58
2024-03-14T08:15:54.212Z,6.69
2024-03-14T08:18:26.265Z,6.81
2024-03-14T08:20:57.932Z,6.92
2024-03-14T08:23:27.756Z,7.01
2024-03-14T08:25:55.870Z,7.07
2024-03-14T08:28:24.560Z,7.14
2024-03-14T08:30:52.779Z,7.24
2024-03-14T08:33:24.557Z,7.34
2024-03-14T08:35:54.148Z,7.40
2024-03-14T08:38:22.046Z,7.39
2024-03-14T08:40:49.868Z,7.36
2024-03-14T08:43:17.654Z,7.45
2024-03-14T08:45:45.513Z,7.51
2024-03-14T08:48:13.564Z,7.53
2024-03-14T08:50:42.399Z,7.56
2024-03-14T08:53:14.516Z,7.58
2024-03-14T08:55:56.398Z,7.67
2024-03-14T08:58:27.494Z,7.77
2024-03-14T09:00:58.007Z,7.85
2024-03-14T09:03:26.731Z,7.92
2024-03-14T09:05:54.797Z,7.95
2024-03-14T09:08:26.654Z,8.03
2024-03-14T09:10:55.171Z,8.11
2024-03-14T09:13:23.563Z,8.13
2024-03-14T09:15:52.391Z,8.20
2024-03-14T09:18:26.912Z,8.28
2024-03-14T09:20:57.534Z,8.37
2024-03-14T09:23:27.211Z,8.45
2024-03-14T09:25:56.759Z,8.46
2024-03-14T09:28:28.622Z,8.46
2024-03-14T09:30:59.997Z,8.48
2024-03-14T09:33:29.327Z,8.45
2024-03-14T09:35:57.852Z,8.49
2024-03-14T09:38:25.742Z,8.55
2024-03-14T09:40:59.768Z,8.59
2024-03-14T09:43:34.110Z,8.60
2024-03-14T09:46:02.535Z,8.62
2024-03-14T09:48:31.576Z,8.67
2024-03-14T09:51:03.967Z,8.69
2024-03-14T09:53:33.161Z,8.71
2024-03-14T09:56:00.922Z,8.77
2024-03-14T09:58:30.196Z,8.80
2024-03-14T10:00:58.596Z,8.81
2024-03-14T10:03:26.566Z,8.81
2024-03-14T10:05:55.239Z,8.79
2024-03-14T10:08:23.508Z,8.90
2024-03-14T10:10:51.813Z,9.01
2024-03-14T10:13:30.573Z,9.16
2024-03-14T10:15:58.332Z,9.33
2024-03-14T10:18:28.236Z,9.64
2024-03-14T10:20:56.453Z,10.07
2024-03-14T10:23:26.768Z,10.20
2024-03-14T10:25:55.492Z,10.36
2024-03-14T10:28:29.752Z,10.46
2024-03-14T10:31:05.670Z,10.67
2024-03-14T10:33:38.690Z,10.91
2024-03-14T10:36:13.190Z,10.90
2024-03-14T10:38:42.474Z,11.37
2024-03-14T10:41:13.734Z,11.81
2024-03-14T10:43:46.560Z,12.15
2024-03-14T10:46:15.222Z,12.63
2024-03-14T10:48:47.347Z,13.14
2024-03-14T10:51:16.473Z,13.39
2024-03-14T10:53:46.746Z,13.32
2024-03-14T10:56:24.186Z,13.69
2024-03-14T10:58:56.492Z,14.10
2024-03-14T11:01:26.935Z,14.56
2024-03-14T11:03:55.107Z,14.96
2024-03-14T11:06:26.699Z,15.19
2024-03-14T11:09:00.691Z,14.94
2024-03-14T11:11:32.049Z,14.63
2024-03-14T11:14:01.423Z,14.69
2024-03-14T11:16:29.946Z,14.95
2024-03-14T11:19:04.805Z,15.00
2024-03-14T11:21:36.190Z,15.28
2024-03-14T11:24:11.743Z,15.61
2024-03-14T11:26:45.408Z,15.79
2024-03-14T11:29:18.968Z,15.86
2024-03-14T11:31:47.305Z,15.85
2024-03-14T11:34:16.997Z,15.70
2024-03-14T11:36:52.186Z,15.67
2024-03-14T11:39:27.431Z,15.74
2024-03-14T11:42:11.600Z,16.03
2024-03-14T11:44:44.469Z,15.82
2024-03-14T11:47:15.421Z,15.43
2024-03-14T11:49:44.457Z,15.44
2024-03-14T11:52:12.762Z,15.50
2024-03-14T11:54:42.625Z,15.21
2024-03-14T11:57:16.843Z,15.19
2024-03-14T11:59:52.940Z,15.05
2024-03-14T12:02:28.996Z,15.12
2024-03-14T12:04:57.869Z,15.11
2024-03-14T12:07:27.687Z,15.28
2024-03-14T12:09:55.528Z,15.22
2024-03-14T12:12:23.363Z,15.13
2024-03-14T12:14:57.123Z,15.10
2024-03-14T12:17:24.974Z,15.15
2024-03-14T12:19:55.713Z,15.00
2024-03-14T12:22:23.612Z,15.00
2024-03-14T12:25:02.112Z,15.01
2024-03-14T12:27:29.965Z,15.17
2024-03-14T12:29:59.853Z,15.23
2024-03-14T12:32:30.983Z,15.27
2024-03-14T12:35:02.647Z,15.13
2024-03-14T12:37:30.676Z,15.20
2024-03-14T12:39:58.985Z,15.08
2024-03-14T12:42:26.850Z,15.09
2024-03-14T12:44:55.618Z,15.09
2024-03-14T12:47:24.828Z,15.24
2024-03-14T12:49:53.294Z,15.22
2024-03-14T12:52:21.136Z,14.88
2024-03-14T12:54:50.870Z,14.89
2024-03-14T12:57:21.430Z,15.06
2024-03-14T12:59:50.834Z,15.13
2024-03-14T13:02:21.591Z,15.00
2024-03-14T13:04:49.415Z,14.96
2024-03-14T13:07:20.448Z,14.77
2024-03-14T13:10:25.046Z,14.49
2024-03-14T13:12:59.058Z,14.40
2024-03-14T13:15:26.969Z,14.49
2024-03-14T13:17:55.504Z,14.64
2024-03-14T13:20:31.175Z,14.62
2024-03-14T13:22:59.873Z,14.50
2024-03-14T13:25:27.802Z,14.47
2024-03-14T13:27:55.614Z,14.34
2024-03-14T13:30:23.551Z,14.12
2024-03-14T13:32:57.660Z,14.11
2024-03-14T13:35:27.324Z,13.94
2024-03-14T13:37:58.549Z,13.81
2024-03-14T13:40:27.058Z,13.70
2024-03-14T13:42:56.255Z,13.52
2024-03-14T13:45:24.146Z,13.41
2024-03-14T13:47:52.510Z,13.35
2024-03-14T13:50:20.453Z,13.22
2024-03-14T13:52:51.424Z,13.16
2024-03-14T13:55:38.106Z,13.15
2024-03-14T13:58:07.757Z,13.11
2024-03-14T14:00:48.508Z,13.11
2024-03-14T14:03:23.331Z,13.15
2024-03-14T14:05:57.069Z,13.22
2024-03-14T14:08:28.924Z,13.17
2024-03-14T14:10:56.924Z,13.10
2024-03-14T14:13:24.734Z,13.04
2024-03-14T14:15:53.767Z,12.91
2024-03-14T14:18:21.927Z,12.88
2024-03-14T14:20:49.683Z,12.83
2024-03-14T14:23:17.603Z,12.74
2024-03-14T14:25:48.306Z,12.69
2024-03-14T14:28:17.777Z,12.63
2024-03-14T14:30:45.755Z,12.68
2024-03-14T14:33:14.536Z,12.69
2024-03-14T14:35:45.600Z,12.64
2024-03-14T14:38:13.570Z,12.52
2024-03-14T14:40:41.389Z,12.47
2024-03-14T14:43:09.422Z,12.48
2024-03-14T14:45:38.897Z,12.48
2024-03-14T14:48:07.174Z,12.50
2024-03-14T14:50:35.282Z,12.43
2024-03-14T14:53:03.043Z,12.42
2024-03-14T14:55:30.890Z,12.33
2024-03-14T14:57:59.078Z,12.12
2024-03-14T15:00:27.104Z,11.94
2024-03-14T15:02:55.343Z,11.81
2024-03-14T15:05:23.249Z,11.63
2024-03-14T15:07:51.650Z,11.46
2024-03-14T15:10:19.739Z,11.24
2024-03-14T15:12:54.110Z,11.11
2024-03-14T15:15:28.179Z,10.99
2024-03-14T15:17:56.514Z,10.86
2024-03-14T15:20:25.053Z,10.68
2024-03-14T15:22:54.533Z,10.47
2024-03-14T15:25:25.946Z,10.39
2024-03-14T15:27:54.787Z,10.33
2024-03-14T15:30:24.401Z,10.27
2024-03-14T15:32:52.833Z,10.20
2024-03-14T15:35:20.836Z,10.16
2024-03-14T15:37:48.782Z,10.11
2024-03-14T15:40:17.282Z,10.02
2024-03-14T15:42:46.409Z,9.93
2024-03-14T15:45:19.357Z,9.88
2024-03-14T15:47:49.054Z,9.80
2024-03-14T15:50:17.993Z,9.72
2024-03-14T15:52:46.103Z,9.68
2024-03-14T15:55:17.131Z,9.61
2024-03-14T15:57:48.684Z,9.56
2024-03-14T16:00:17.924Z,9.49
2024-03-14T16:02:46.516Z,9.42
2024-03-14T16:05:17.753Z,9.36
2024-03-14T16:07:48.322Z,9.27
2024-03-14T16:10:17.614Z,9.17
2024-03-14T16:12:49.043Z,9.10
2024-03-14T16:15:17.883Z,9.02
2024-03-14T16:17:46.022Z,8.90
2024-03-14T16:20:33.394Z,8.86
2024-03-14T16:23:05.219Z,8.79
2024-03-14T16:25:37.015Z,8.73
2024-03-14T16:28:05.580Z,8.66
2024-03-14T16:30:33.765Z,8.57
2024-03-14T16:33:02.096Z,8.49
2024-03-14T16:35:31.003Z,8.43
2024-03-14T16:38:03.403Z,8.38
2024-03-14T16:40:33.452Z,8.30
2024-03-14T16:43:02.819Z,8.21
2024-03-14T16:45:31.392Z,8.15
2024-03-14T16:48:03.614Z,8.06
2024-03-14T16:50:32.975Z,7.97
2024-03-14T16:53:01.393Z,7.91
2024-03-14T16:55:32.624Z,7.83
2024-03-14T16:58:03.929Z,7.76
2024-03-14T17:00:32.274Z,7.70
2024-03-14T17:03:01.035Z,7.65
2024-03-14T17:05:29.892Z,7.60
2024-03-14T17:07:58.098Z,7.52
2024-03-14T17:10:27.254Z,7.47
2024-03-14T17:12:55.966Z,7.43
2024-03-14T17:15:24.010Z,7.37
2024-03-14T17:17:51.937Z,7.31
2024-03-14T17:20:19.851Z,7.26
2024-03-14T17:22:48.505Z,7.21
2024-03-14T17:25:16.669Z,7.15
2024-03-14T17:27:45.741Z,7.09
2024-03-14T17:30:17.811Z,7.02
2024-03-14T17:32:46.410Z,6.98
2024-03-14T17:35:14.542Z,6.93
2024-03-14T17:37:44.988Z,6.88
2024-03-14T17:40:13.210Z,6.85
2024-03-14T17:42:48.624Z,6.78
2024-03-14T17:45:18.814Z,6.71
2024-03-14T17:47:48.598Z,6.66
2024-03-14T17:50:17.145Z,6.59
2024-03-14T17:52:46.768Z,6.54
2024-03-14T17:55:15.746Z,6.47
2024-03-14T17:57:45.750Z,6.41
2024-03-14T18:00:18.867Z,6.34
2024-03-14T18:02:49.999Z,6.27
2024-03-14T18:05:19.166Z,6.24
2024-03-14T18:07:48.094Z,6.17
2024-03-14T18:10:16.870Z,6.08
2024-03-14T18:12:49.295Z,6.04
2024-03-14T18:15:20.190Z,5.98
2024-03-14T18:17:50.038Z,5.92
2024-03-14T18:20:19.035Z,5.87
2024-03-14T18:22:47.106Z,5.82
2024-03-14T18:25:18.727Z,5.77
2024-03-14T18:27:50.408Z,5.72
2024-03-14T18:30:21.763Z,5.65
2024-03-14T18:32:51.939Z,5.61
2024-03-14T18:35:24.284Z,5.56
2024-03-14T18:37:54.233Z,5.53
2024-03-14T18:40:27.630Z,5.46
2024-03-14T18:43:00.542Z,5.40
2024-03-14T18:45:29.091Z,5.35
2024-03-14T18:47:59.157Z,5.32
2024-03-14T18:50:27.572Z,5.27
2024-03-14T18:52:56.066Z,5.21
2024-03-14T18:55:24.753Z,5.17
2024-03-14T18:57:53.569Z,5.16
2024-03-14T19:00:26.765Z,5.13
2024-03-14T19:02:55.917Z,5.11
2024-03-14T19:05:28.586Z,5.08
2024-03-14T19:08:03.608Z,5.04
2024-03-14T19:10:34.248Z,5.02
2024-03-14T19:13:04.087Z,4.99
2024-03-14T19:15:35.129Z,4.96
2024-03-14T19:18:03.249Z,4.93
2024-03-14T19:20:31.523Z,4.91
2024-03-14T19:22:59.437Z,4.89
2024-03-14T19:25:27.255Z,4.86
2024-03-14T19:27:55.598Z,4.84
2024-03-14T19:30:25.508Z,4.82
2024-03-14T19:32:54.484Z,4.79
2024-03-14T19:35:22.335Z,4.75
2024-03-14T19:37:50.340Z,4.74
2024-03-14T19:40:18.187Z,4.69
2024-03-14T19:42:46.102Z,4.66
2024-03-14T19:45:15.884Z,4.63
2024-03-14T19:47:47.300Z,4.59
2024-03-14T19:50:15.241Z,4.56
2024-03-14T19:52:45.443Z,4.53
2024-03-14T19:55:14.641Z,4.50
2024-03-14T19:57:42.884Z,4.47
2024-03-14T20:00:12.113Z,4.44
2024-03-14T20:02:42.044Z,4.41
2024-03-14T20:05:10.160Z,4.38
2024-03-14T20:07:38.397Z,4.36
2024-03-14T20:10:08.571Z,4.31
2024-03-14T20:12:36.707Z,4.28
2024-03-14T20:15:05.146Z,4.26
2024-03-14T20:17:34.220Z,4.22
2024-03-14T20:20:08.647Z,4.21
2024-03-14T20:22:36.420Z,4.18
2024-03-14T20:25:06.255Z,4.16
2024-03-14T20:27:35.928Z,4.14
2024-03-14T20:30:05.347Z,4.10
2024-03-14T20:32:33.104Z,4.06
2024-03-14T20:35:02.449Z,4.03
2024-03-14T20:37:31.016Z,4.01
2024-03-14T20:40:02.185Z,3.98
2024-03-14T20:42:33.973Z,3.95
2024-03-14T20:45:02.084Z,3.92
2024-03-14T20:47:30.411Z,3.89
2024-03-14T20:49:58.985Z,3.88
2024-03-14T20:52:28.147Z,3.86
2024-03-14T20:57:52.926Z,3.81
2024-03-14T21:00:30.662Z,3.79
2024-03-14T21:02:59.070Z,3.77
2024-03-14T21:05:27.702Z,3.76
2024-03-14T21:07:56.513Z,3.74
2024-03-14T21:10:34.899Z,3.71
2024-03-14T21:13:06.270Z,3.70
2024-03-14T21:15:36.872Z,3.68
2024-03-14T21:18:05.019Z,3.66
2024-03-14T21:20:33.073Z,3.63
2024-03-14T21:23:01.079Z,3.61
2024-03-14T21:25:30.132Z,3.58
2024-03-14T21:28:01.557Z,3.55
2024-03-14T21:30:29.672Z,3.52
2024-03-14T21:32:58.373Z,3.50
2024-03-14T21:35:26.662Z,3.49
2024-03-14T21:37:54.788Z,3.46
2024-03-14T21:40:24.509Z,3.44
2024-03-14T21:42:53.645Z,3.41
2024-03-14T21:45:21.772Z,3.39
2024-03-14T21:47:49.773Z,3.38
2024-03-14T21:50:18.407Z,3.35
2024-03-14T21:52:46.548Z,3.33
2024-03-14T21:55:22.075Z,3.31
2024-03-14T21:57:51.622Z,3.29
2024-03-14T22:00:21.636Z,3.27
2024-03-14T22:02:51.105Z,3.27
2024-03-14T22:05:22.260Z,3.25
2024-03-14T22:07:50.457Z,3.24
2024-03-14T22:10:18.719Z,3.23
2024-03-14T22:12:46.621Z,3.21
2024-03-14T22:15:15.994Z,3.21
2024-03-14T22:17:45.386Z,3.19
2024-03-14T22:20:20.647Z,3.18
2024-03-14T22:22:49.161Z,3.15
2024-03-14T22:25:18.269Z,3.15
2024-03-14T22:27:46.563Z,3.14
2024-03-14T22:30:15.092Z,3.12
2024-03-14T22:32:43.081Z,3.10
2024-03-14T22:35:11.444Z,3.10
2024-03-14T22:37:39.456Z,3.08
2024-03-14T22:40:07.966Z,3.09
2024-03-14T22:42:36.127Z,3.06
2024-03-14T22:45:05.215Z,3.05
2024-03-14T22:47:33.434Z,3.04
2024-03-14T22:50:01.283Z,3.04
2024-03-14T22:52:29.181Z,3.01
2024-03-14T22:54:57.095Z,3.00
2024-03-14T22:57:25.047Z,2.99
2024-03-14T22:59:52.918Z,2.98
2024-03-14T23:02:21.947Z,2.97
2024-03-14T23:04:49.833Z,2.96
2024-03-14T23:07:18.567Z,2.93
2024-03-14T23:09:47.892Z,2.91
2024-03-14T23:12:17.026Z,2.89
2024-03-14T23:14:45.281Z,2.87
2024-03-14T23:17:16.252Z,2.85
2024-03-14T23:19:44.068Z,2.82
2024-03-14T23:22:11.799Z,2.79
2024-03-14T23:24:41.905Z,2.76
2024-03-14T23:27:10.145Z,2.75
2024-03-14T23:29:38.014Z,2.72
2024-03-14T23:32:05.942Z,2.70
2024-03-14T23:34:33.900Z,2.67
2024-03-14T23:37:01.665Z,2.66
2024-03-14T23:39:30.023Z,2.65
2024-03-14T23:41:57.973Z,2.64
2024-03-14T23:44:25.677Z,2.62
2024-03-14T23:46:54.169Z,2.63
2024-03-14T23:49:21.967Z,2.62
2024-03-14T23:51:49.803Z,2.60
2024-03-14T23:54:17.927Z,2.58
2024-03-14T23:56:45.742Z,2.57
2024-03-14T23:59:13.523Z,2.56
